TFM - Tactical Decision Aid (Experimental) INFO Settings
 
 

ID: Runway Winds: CIG/VIS Threshold: METAR Board: Map:

KDFW - Dallas/Fort Worth Intl

Updated at: 0213 UTC 31 Aug 2014
Latest TAF at: 2330 UTC 30 Aug 2014

TAF Board

Time0153Z31/03Z31/04Z31/05Z31/06Z31/07Z31/08Z31/09Z31/10Z31/11Z31/12Z31/13Z31/14Z31/15Z
TypeOBSPRVLPRVLPRVLPRVLPRVLPRVLPRVLPRVLPRVLPRVLPRVLPRVLPRVL
VIS10>6>6>6>6>6>6>6>6>6>6>6>6>6
CIG----------------------252525
CoverSCTSCTSCTSCTSCTSCTSCTSCTSCTSCTSCTBKNBKNBKN
FltCat--VFRVFRVFRVFRVFRVFRVFRVFRVFRVFRMVFRMVFRMVFR
WX----------------------------
WDir140140140140140140140140140140140170170170
WSpd116666666666101010
WGst----------------------------
TAF
KDFW 302330Z 3100/0106 14006KT P6SM SCT050
  FM311300 17010KT P6SM BKN025
  FM311600 17012KT P6SM SCT040


METAR
KDFW 310153Z 14011KT 10SM FEW055 SCT300 31/21 A2989 RMK AO2 SLP112 T03060206
KDFW 310053Z 14010KT 10SM FEW050 SCT300 32/19 A2987 RMK AO2 SLP105 CB DSNT NE MOV E T03170194

TAF/METAR Board Legend

Potential Impact
  None Marginal Slight Moderate High
Visibility (sm) >5 3≤X≤5 1≤X<3 0.5≤X<1 <0.5
Ceiling (100 ft) >30 10≤X≤30 4≤X<10 2≤X<4 <2
Wind Speed (kt) <10 10≤X<20 20≤X<30 ≥30
Wind Gust (kt) <15 15≤X<25 25≤X<35 ≥35
Weather No Wx Reported VCTS -TS,-FZRA TS,FZRA +TS,+FZRA